sensor_id;sensor_type;location;lat;lon;timestamp;P1;durP1;ratioP1;P2;durP2;ratioP2
78116;SDS011;67365;59.134;37.882;2023-02-15T16:42:54;6.15;;;2.42;;
78116;SDS011;67365;59.134;37.882;2023-02-15T16:47:55;7.10;;;2.67;;
78116;SDS011;67365;59.134;37.882;2023-02-15T16:50:23;6.45;;;2.75;;
78116;SDS011;67365;59.134;37.882;2023-02-15T16:52:49;6.35;;;2.75;;
78116;SDS011;67365;59.134;37.882;2023-02-15T16:55:24;6.38;;;3.00;;
78116;SDS011;67365;59.134;37.882;2023-02-15T16:57:50;5.47;;;2.50;;
78116;SDS011;67365;59.134;37.882;2023-02-15T17:00:21;6.80;;;2.80;;
78116;SDS011;67365;59.134;37.882;2023-02-15T17:05:23;5.43;;;2.60;;
78116;SDS011;67365;59.134;37.882;2023-02-15T17:10:34;5.55;;;2.63;;
78116;SDS011;67365;59.134;37.882;2023-02-15T17:15:54;4.85;;;2.40;;
78116;SDS011;67365;59.134;37.882;2023-02-15T17:18:22;5.80;;;2.42;;
78116;SDS011;67365;59.134;37.882;2023-02-15T17:20:49;6.32;;;2.50;;
78116;SDS011;67365;59.134;37.882;2023-02-15T17:25:53;5.70;;;2.58;;
78116;SDS011;67365;59.134;37.882;2023-02-15T17:28:21;5.22;;;2.50;;
78116;SDS011;67365;59.134;37.882;2023-02-15T17:30:47;5.13;;;2.55;;
78116;SDS011;67365;59.134;37.882;2023-02-15T17:33:22;4.80;;;2.45;;
78116;SDS011;67365;59.134;37.882;2023-02-15T17:38:30;5.18;;;2.30;;
78116;SDS011;67365;59.134;37.882;2023-02-15T17:40:57;5.43;;;2.30;;
78116;SDS011;67365;59.134;37.882;2023-02-15T17:43:26;5.18;;;2.25;;
78116;SDS011;67365;59.134;37.882;2023-02-15T17:45:52;4.88;;;2.17;;
78116;SDS011;67365;59.134;37.882;2023-02-15T17:50:44;5.40;;;2.60;;
78116;SDS011;67365;59.134;37.882;2023-02-15T17:53:10;5.72;;;2.30;;
78116;SDS011;67365;59.134;37.882;2023-02-15T17:55:36;5.45;;;2.30;;
78116;SDS011;67365;59.134;37.882;2023-02-15T17:58:09;5.03;;;2.17;;
78116;SDS011;67365;59.134;37.882;2023-02-15T18:00:40;5.63;;;2.10;;
78116;SDS011;67365;59.134;37.882;2023-02-15T18:03:38;5.53;;;2.22;;
78116;SDS011;67365;59.134;37.882;2023-02-15T18:06:24;4.88;;;2.10;;
78116;SDS011;67365;59.134;37.882;2023-02-15T18:09:12;5.07;;;2.10;;
78116;SDS011;67365;59.134;37.882;2023-02-15T18:12:01;5.35;;;2.20;;
78116;SDS011;67365;59.134;37.882;2023-02-15T18:14:27;4.78;;;2.00;;
78116;SDS011;67365;59.134;37.882;2023-02-15T18:16:52;5.30;;;2.10;;
78116;SDS011;67365;59.134;37.882;2023-02-15T18:19:23;4.63;;;2.03;;
78116;SDS011;67365;59.134;37.882;2023-02-15T18:21:50;4.47;;;1.98;;
78116;SDS011;67365;59.134;37.882;2023-02-15T18:24:21;4.25;;;1.70;;
78116;SDS011;67365;59.134;37.882;2023-02-15T18:26:48;4.43;;;1.80;;
78116;SDS011;67365;59.134;37.882;2023-02-15T18:29:16;5.22;;;1.90;;
78116;SDS011;67365;59.134;37.882;2023-02-15T18:31:44;4.70;;;1.88;;
78116;SDS011;67365;59.134;37.882;2023-02-15T18:34:30;4.32;;;1.70;;
78116;SDS011;67365;59.134;37.882;2023-02-15T18:36:57;4.63;;;1.85;;
78116;SDS011;67365;59.134;37.882;2023-02-15T18:41:52;4.18;;;1.70;;
78116;SDS011;67365;59.134;37.882;2023-02-15T18:44:18;4.55;;;1.63;;
78116;SDS011;67365;59.134;37.882;2023-02-15T18:48:53;4.35;;;1.80;;
78116;SDS011;67365;59.134;37.882;2023-02-15T18:51:22;4.10;;;1.88;;
78116;SDS011;67365;59.134;37.882;2023-02-15T18:53:51;3.88;;;1.85;;
78116;SDS011;67365;59.134;37.882;2023-02-15T18:56:18;3.80;;;1.75;;
78116;SDS011;67365;59.134;37.882;2023-02-15T18:58:45;3.80;;;1.70;;
78116;SDS011;67365;59.134;37.882;2023-02-15T19:01:15;4.00;;;1.60;;
78116;SDS011;67365;59.134;37.882;2023-02-15T19:03:45;3.60;;;1.60;;
78116;SDS011;67365;59.134;37.882;2023-02-15T19:06:14;4.10;;;1.80;;
78116;SDS011;67365;59.134;37.882;2023-02-15T19:08:41;3.72;;;1.70;;
78116;SDS011;67365;59.134;37.882;2023-02-15T19:11:12;4.00;;;1.77;;
78116;SDS011;67365;59.134;37.882;2023-02-15T19:13:40;4.13;;;1.70;;
78116;SDS011;67365;59.134;37.882;2023-02-15T19:16:06;3.95;;;1.38;;
78116;SDS011;67365;59.134;37.882;2023-02-15T19:18:33;4.05;;;1.73;;
78116;SDS011;67365;59.134;37.882;2023-02-15T19:20:59;4.57;;;1.50;;
78116;SDS011;67365;59.134;37.882;2023-02-15T19:23:25;4.70;;;1.50;;
78116;SDS011;67365;59.134;37.882;2023-02-15T19:25:51;4.63;;;1.70;;
78116;SDS011;67365;59.134;37.882;2023-02-15T19:28:24;4.35;;;1.70;;
78116;SDS011;67365;59.134;37.882;2023-02-15T19:30:53;3.95;;;1.50;;
78116;SDS011;67365;59.134;37.882;2023-02-15T19:33:19;4.07;;;1.73;;
78116;SDS011;67365;59.134;37.882;2023-02-15T19:35:46;3.20;;;1.33;;
78116;SDS011;67365;59.134;37.882;2023-02-15T19:38:17;3.95;;;1.58;;
78116;SDS011;67365;59.134;37.882;2023-02-15T19:40:44;4.22;;;1.45;;
78116;SDS011;67365;59.134;37.882;2023-02-15T19:43:17;3.95;;;1.58;;
78116;SDS011;67365;59.134;37.882;2023-02-15T19:45:44;3.80;;;1.40;;
78116;SDS011;67365;59.134;37.882;2023-02-15T19:48:11;3.65;;;1.50;;
78116;SDS011;67365;59.134;37.882;2023-02-15T19:50:37;3.83;;;1.35;;
78116;SDS011;67365;59.134;37.882;2023-02-15T19:53:03;4.68;;;1.60;;
78116;SDS011;67365;59.134;37.882;2023-02-15T19:55:33;3.70;;;1.52;;
78116;SDS011;67365;59.134;37.882;2023-02-15T19:58:00;3.72;;;1.67;;
78116;SDS011;67365;59.134;37.882;2023-02-15T20:00:28;3.97;;;1.55;;
78116;SDS011;67365;59.134;37.882;2023-02-15T20:02:54;3.58;;;1.27;;
78116;SDS011;67365;59.134;37.882;2023-02-15T20:05:21;4.22;;;1.38;;
78116;SDS011;67365;59.134;37.882;2023-02-15T20:07:48;4.65;;;1.50;;
78116;SDS011;67365;59.134;37.882;2023-02-15T20:10:15;4.28;;;1.50;;
78116;SDS011;67365;59.134;37.882;2023-02-15T20:12:42;3.40;;;1.30;;
78116;SDS011;67365;59.134;37.882;2023-02-15T20:15:15;3.63;;;1.20;;
78116;SDS011;67365;59.134;37.882;2023-02-15T20:17:41;3.50;;;1.35;;
78116;SDS011;67365;59.134;37.882;2023-02-15T20:20:07;3.97;;;1.23;;
78116;SDS011;67365;59.134;37.882;2023-02-15T20:22:33;3.60;;;1.25;;
78116;SDS011;67365;59.134;37.882;2023-02-15T20:24:59;3.60;;;1.30;;
78116;SDS011;67365;59.134;37.882;2023-02-15T20:27:26;3.90;;;1.42;;
78116;SDS011;67365;59.134;37.882;2023-02-15T20:29:52;3.50;;;1.20;;
78116;SDS011;67365;59.134;37.882;2023-02-15T20:32:21;3.80;;;1.33;;
78116;SDS011;67365;59.134;37.882;2023-02-15T20:34:47;3.85;;;1.33;;
78116;SDS011;67365;59.134;37.882;2023-02-15T20:37:19;3.75;;;1.30;;
78116;SDS011;67365;59.134;37.882;2023-02-15T20:41:31;3.70;;;1.30;;
78116;SDS011;67365;59.134;37.882;2023-02-15T20:46:43;3.15;;;1.02;;
78116;SDS011;67365;59.134;37.882;2023-02-15T20:49:10;4.45;;;1.20;;
78116;SDS011;67365;59.134;37.882;2023-02-15T20:51:36;3.22;;;1.23;;
78116;SDS011;67365;59.134;37.882;2023-02-15T20:54:11;3.47;;;1.20;;
78116;SDS011;67365;59.134;37.882;2023-02-15T20:56:37;3.63;;;1.00;;
78116;SDS011;67365;59.134;37.882;2023-02-15T20:59:08;3.65;;;1.20;;
78116;SDS011;67365;59.134;37.882;2023-02-15T21:01:37;3.92;;;1.30;;
78116;SDS011;67365;59.134;37.882;2023-02-15T21:04:03;4.07;;;1.10;;
78116;SDS011;67365;59.134;37.882;2023-02-15T21:06:30;3.92;;;1.40;;
78116;SDS011;67365;59.134;37.882;2023-02-15T21:08:56;3.30;;;1.15;;
78116;SDS011;67365;59.134;37.882;2023-02-15T21:12:30;3.00;;;1.00;;
78116;SDS011;67365;59.134;37.882;2023-02-15T21:14:56;5.43;;;1.20;;
78116;SDS011;67365;59.134;37.882;2023-02-15T21:17:22;5.88;;;2.00;;
78116;SDS011;67365;59.134;37.882;2023-02-15T21:19:48;4.13;;;1.33;;
78116;SDS011;67365;59.134;37.882;2023-02-15T21:22:14;3.45;;;1.10;;
78116;SDS011;67365;59.134;37.882;2023-02-15T21:24:48;3.58;;;1.13;;
78116;SDS011;67365;59.134;37.882;2023-02-15T21:27:15;2.97;;;1.00;;
78116;SDS011;67365;59.134;37.882;2023-02-15T21:29:41;2.97;;;1.02;;
78116;SDS011;67365;59.134;37.882;2023-02-15T21:32:08;3.40;;;1.00;;
78116;SDS011;67365;59.134;37.882;2023-02-15T21:34:34;3.78;;;1.20;;
78116;SDS011;67365;59.134;37.882;2023-02-15T21:37:00;3.03;;;1.05;;
78116;SDS011;67365;59.134;37.882;2023-02-15T21:39:27;3.00;;;1.00;;
78116;SDS011;67365;59.134;37.882;2023-02-15T21:41:53;2.50;;;1.00;;
78116;SDS011;67365;59.134;37.882;2023-02-15T21:44:41;2.88;;;1.20;;
78116;SDS011;67365;59.134;37.882;2023-02-15T21:48:00;2.45;;;0.90;;
78116;SDS011;67365;59.134;37.882;2023-02-15T21:50:26;6.07;;;1.30;;
78116;SDS011;67365;59.134;37.882;2023-02-15T21:54:04;2.97;;;1.00;;
78116;SDS011;67365;59.134;37.882;2023-02-15T21:56:38;3.00;;;1.00;;
78116;SDS011;67365;59.134;37.882;2023-02-15T21:59:52;3.60;;;1.10;;
78116;SDS011;67365;59.134;37.882;2023-02-15T22:03:09;3.10;;;1.00;;
78116;SDS011;67365;59.134;37.882;2023-02-15T22:05:46;4.00;;;1.35;;
78116;SDS011;67365;59.134;37.882;2023-02-15T22:08:17;2.60;;;0.93;;
78116;SDS011;67365;59.134;37.882;2023-02-15T22:11:02;3.75;;;1.00;;
78116;SDS011;67365;59.134;37.882;2023-02-15T22:13:31;3.80;;;1.10;;
78116;SDS011;67365;59.134;37.882;2023-02-15T22:15:58;3.10;;;0.95;;
78116;SDS011;67365;59.134;37.882;2023-02-15T22:18:25;3.53;;;0.95;;
78116;SDS011;67365;59.134;37.882;2023-02-15T22:20:51;2.13;;;0.88;;
78116;SDS011;67365;59.134;37.882;2023-02-15T22:23:17;3.45;;;0.90;;
78116;SDS011;67365;59.134;37.882;2023-02-15T22:25:49;2.63;;;0.80;;
78116;SDS011;67365;59.134;37.882;2023-02-15T22:28:20;3.30;;;1.10;;
78116;SDS011;67365;59.134;37.882;2023-02-15T22:30:46;3.42;;;1.02;;
78116;SDS011;67365;59.134;37.882;2023-02-15T22:33:31;3.03;;;0.93;;
78116;SDS011;67365;59.134;37.882;2023-02-15T22:35:57;3.47;;;0.98;;
78116;SDS011;67365;59.134;37.882;2023-02-15T22:38:24;3.03;;;1.00;;
78116;SDS011;67365;59.134;37.882;2023-02-15T22:40:50;2.80;;;1.00;;
78116;SDS011;67365;59.134;37.882;2023-02-15T22:43:29;2.70;;;1.10;;
78116;SDS011;67365;59.134;37.882;2023-02-15T22:45:56;3.30;;;0.82;;
78116;SDS011;67365;59.134;37.882;2023-02-15T22:48:22;3.35;;;1.00;;
78116;SDS011;67365;59.134;37.882;2023-02-15T22:50:48;2.08;;;0.80;;
78116;SDS011;67365;59.134;37.882;2023-02-15T22:53:14;3.25;;;1.05;;
78116;SDS011;67365;59.134;37.882;2023-02-15T22:55:41;3.25;;;0.90;;
78116;SDS011;67365;59.134;37.882;2023-02-15T22:58:08;2.63;;;0.82;;
78116;SDS011;67365;59.134;37.882;2023-02-15T23:00:38;3.13;;;0.90;;
78116;SDS011;67365;59.134;37.882;2023-02-15T23:03:18;3.88;;;1.00;;
78116;SDS011;67365;59.134;37.882;2023-02-15T23:05:45;2.35;;;0.80;;
78116;SDS011;67365;59.134;37.882;2023-02-15T23:08:10;2.40;;;1.00;;
78116;SDS011;67365;59.134;37.882;2023-02-15T23:10:37;3.10;;;0.80;;
78116;SDS011;67365;59.134;37.882;2023-02-15T23:13:21;3.88;;;1.00;;
78116;SDS011;67365;59.134;37.882;2023-02-15T23:15:48;2.10;;;0.75;;
78116;SDS011;67365;59.134;37.882;2023-02-15T23:20:43;2.22;;;0.90;;
78116;SDS011;67365;59.134;37.882;2023-02-15T23:23:09;2.28;;;0.73;;
78116;SDS011;67365;59.134;37.882;2023-02-15T23:25:36;2.28;;;0.82;;
78116;SDS011;67365;59.134;37.882;2023-02-15T23:28:03;2.47;;;0.90;;
78116;SDS011;67365;59.134;37.882;2023-02-15T23:30:29;2.08;;;0.90;;
78116;SDS011;67365;59.134;37.882;2023-02-15T23:32:55;1.83;;;0.80;;
78116;SDS011;67365;59.134;37.882;2023-02-15T23:35:21;2.50;;;0.90;;
78116;SDS011;67365;59.134;37.882;2023-02-15T23:37:47;2.42;;;0.88;;
78116;SDS011;67365;59.134;37.882;2023-02-15T23:40:14;2.28;;;0.93;;
78116;SDS011;67365;59.134;37.882;2023-02-15T23:42:58;2.22;;;0.85;;
78116;SDS011;67365;59.134;37.882;2023-02-15T23:45:24;2.58;;;0.77;;
78116;SDS011;67365;59.134;37.882;2023-02-15T23:47:50;1.92;;;0.90;;
78116;SDS011;67365;59.134;37.882;2023-02-15T23:50:35;2.28;;;0.82;;
78116;SDS011;67365;59.134;37.882;2023-02-15T23:53:01;2.78;;;0.95;;
78116;SDS011;67365;59.134;37.882;2023-02-15T23:55:35;2.47;;;0.80;;
78116;SDS011;67365;59.134;37.882;2023-02-15T23:58:05;2.13;;;0.80;;
